createdAt,value
2023-05-23T00:00:18.031Z,12.60
2023-05-23T00:02:47.108Z,11.05
2023-05-23T00:05:15.553Z,10.25
2023-05-23T00:07:44.608Z,11.20
2023-05-23T00:10:12.719Z,10.43
2023-05-23T00:12:42.569Z,12.27
2023-05-23T00:15:11.030Z,11.60
2023-05-23T00:17:39.699Z,10.85
2023-05-23T00:20:09.652Z,9.07
2023-05-23T00:22:42.222Z,9.37
2023-05-23T00:25:11.650Z,9.98
2023-05-23T00:27:39.344Z,9.10
2023-05-23T00:30:07.686Z,12.10
2023-05-23T00:32:35.742Z,9.38
2023-05-23T00:35:03.802Z,12.30
2023-05-23T00:37:32.339Z,10.70
2023-05-23T00:39:59.983Z,8.98
2023-05-23T00:42:29.041Z,8.88
2023-05-23T00:44:56.699Z,9.00
2023-05-23T00:47:24.603Z,8.97
2023-05-23T00:49:52.268Z,10.60
2023-05-23T00:52:19.960Z,9.70
2023-05-23T00:54:47.591Z,8.50
2023-05-23T00:57:15.251Z,10.57
2023-05-23T00:59:44.544Z,10.00
2023-05-23T01:02:12.873Z,9.57
2023-05-23T01:04:41.114Z,8.05
2023-05-23T01:07:10.280Z,8.57
2023-05-23T01:09:38.129Z,9.20
2023-05-23T01:12:12.175Z,9.80
2023-05-23T01:14:43.467Z,9.00
2023-05-23T01:17:17.880Z,11.07
2023-05-23T01:20:01.202Z,10.02
2023-05-23T01:22:39.560Z,10.55
2023-05-23T01:25:11.988Z,10.27
2023-05-23T01:27:55.282Z,9.43
2023-05-23T01:30:24.439Z,8.95
2023-05-23T01:32:52.562Z,9.75
2023-05-23T01:35:23.552Z,10.15
2023-05-23T01:37:51.192Z,8.83
2023-05-23T01:40:18.905Z,7.88
2023-05-23T01:42:46.611Z,8.30
2023-05-23T01:45:16.575Z,9.88
2023-05-23T01:47:44.533Z,8.90
2023-05-23T01:50:13.004Z,8.23
2023-05-23T01:52:41.290Z,9.93
2023-05-23T01:55:12.185Z,7.68
2023-05-23T01:57:40.198Z,7.57
2023-05-23T02:00:08.267Z,8.38
2023-05-23T02:02:37.576Z,8.37
2023-05-23T02:05:05.503Z,7.63
2023-05-23T02:07:33.174Z,9.23
2023-05-23T02:10:00.845Z,7.85
2023-05-23T02:12:28.500Z,8.75
2023-05-23T02:14:56.302Z,8.90
2023-05-23T02:17:24.358Z,10.50
2023-05-23T02:19:53.943Z,6.95
2023-05-23T02:22:24.122Z,9.60
2023-05-23T02:24:51.782Z,7.50
2023-05-23T02:27:19.580Z,8.83
2023-05-23T02:29:47.294Z,9.07
2023-05-23T02:32:15.022Z,9.68
2023-05-23T02:34:42.643Z,10.07
2023-05-23T02:37:11.668Z,10.77
2023-05-23T02:39:39.434Z,9.83
2023-05-23T02:42:07.849Z,8.93
2023-05-23T02:44:35.798Z,8.95
2023-05-23T02:47:03.655Z,8.43
2023-05-23T02:49:31.335Z,7.57
2023-05-23T02:51:58.991Z,9.37
2023-05-23T02:54:28.002Z,8.63
2023-05-23T02:56:55.921Z,8.23
2023-05-23T02:59:23.654Z,7.38
2023-05-23T03:01:51.393Z,8.30
2023-05-23T03:04:19.037Z,9.40
2023-05-23T03:06:47.640Z,9.77
2023-05-23T03:09:16.797Z,11.43
2023-05-23T03:11:46.011Z,9.77
2023-05-23T03:14:14.007Z,8.20
2023-05-23T03:16:41.790Z,8.90
2023-05-23T03:19:09.604Z,7.80
2023-05-23T03:21:37.299Z,8.63
2023-05-23T03:24:05.035Z,10.77
2023-05-23T03:26:32.695Z,9.57
2023-05-23T03:29:01.764Z,9.13
2023-05-23T03:31:29.466Z,9.73
2023-05-23T03:33:58.325Z,8.48
2023-05-23T03:36:28.433Z,8.48
2023-05-23T03:38:56.074Z,9.25
2023-05-23T03:41:23.723Z,8.83
2023-05-23T03:43:51.518Z,8.82
2023-05-23T03:46:20.721Z,8.90
2023-05-23T03:48:48.452Z,7.70
2023-05-23T03:51:16.177Z,8.73
2023-05-23T03:53:43.852Z,8.90
2023-05-23T03:56:11.531Z,8.13
2023-05-23T03:58:39.266Z,11.32
2023-05-23T04:01:07.016Z,8.23
2023-05-23T04:03:36.136Z,10.20
2023-05-23T04:06:03.916Z,9.03
2023-05-23T04:08:34.055Z,9.23
2023-05-23T04:11:02.337Z,8.95
2023-05-23T04:13:31.084Z,9.00
2023-05-23T04:15:59.630Z,9.85
2023-05-23T04:18:28.490Z,9.47
2023-05-23T04:20:57.610Z,13.68
2023-05-23T04:23:25.263Z,10.23
2023-05-23T04:25:53.036Z,8.25
2023-05-23T04:28:20.672Z,9.27
2023-05-23T04:30:49.514Z,9.13
2023-05-23T04:33:17.461Z,8.73
2023-05-23T04:35:45.309Z,8.27
2023-05-23T04:38:14.290Z,9.35
2023-05-23T04:40:42.149Z,8.48
2023-05-23T04:43:10.249Z,8.93
2023-05-23T04:45:38.078Z,8.73
2023-05-23T04:48:05.780Z,10.60
2023-05-23T04:50:35.759Z,9.80
2023-05-23T04:53:03.369Z,9.10
2023-05-23T04:55:32.430Z,8.97
2023-05-23T04:58:00.274Z,9.98
2023-05-23T05:00:28.081Z,8.20
2023-05-23T05:02:55.924Z,10.95
2023-05-23T05:05:23.560Z,8.15
2023-05-23T05:07:51.211Z,10.67
2023-05-23T05:10:18.878Z,9.85
2023-05-23T05:12:49.577Z,10.18
2023-05-23T05:15:17.543Z,9.25
2023-05-23T05:17:46.471Z,9.23
2023-05-23T05:20:16.948Z,10.93
2023-05-23T05:22:44.625Z,10.38
2023-05-23T05:25:12.352Z,10.50
2023-05-23T05:27:40.771Z,14.00
2023-05-23T05:30:10.511Z,12.45
2023-05-23T05:32:38.158Z,12.80
2023-05-23T05:35:07.848Z,11.45
2023-05-23T05:37:35.479Z,12.25
2023-05-23T05:40:08.360Z,10.73
2023-05-23T05:42:36.036Z,10.57
2023-05-23T05:45:03.737Z,12.90
2023-05-23T05:47:32.797Z,13.00
2023-05-23T05:50:00.434Z,11.15
2023-05-23T05:52:28.088Z,12.93
2023-05-23T05:54:57.758Z,13.70
2023-05-23T05:57:25.431Z,13.30
2023-05-23T05:59:53.055Z,15.07
2023-05-23T06:02:20.960Z,15.32
2023-05-23T06:04:50.063Z,17.60
2023-05-23T06:07:18.177Z,16.63
2023-05-23T06:09:45.809Z,13.27
2023-05-23T06:12:13.421Z,13.93
2023-05-23T06:14:41.100Z,15.05
2023-05-23T06:17:09.679Z,13.88
2023-05-23T06:19:38.647Z,13.77
2023-05-23T06:22:07.867Z,13.43
2023-05-23T06:24:35.498Z,10.70
2023-05-23T06:27:03.150Z,7.97
2023-05-23T06:29:31.240Z,7.63
2023-05-23T06:31:59.092Z,8.20
2023-05-23T06:34:26.941Z,8.67
2023-05-23T06:36:54.592Z,6.32
2023-05-23T06:39:23.632Z,6.57
2023-05-23T06:41:51.356Z,6.90
2023-05-23T06:44:18.986Z,6.38
2023-05-23T06:46:47.265Z,5.87
2023-05-23T06:49:15.520Z,6.80
2023-05-23T06:51:43.303Z,5.95
2023-05-23T06:54:11.269Z,5.68
2023-05-23T06:56:40.386Z,6.43
2023-05-23T07:02:54.603Z,5.45
2023-05-23T07:05:22.325Z,4.47
2023-05-23T07:07:50.279Z,6.10
2023-05-23T07:10:17.892Z,5.28
2023-05-23T07:12:46.793Z,4.60
2023-05-23T07:15:14.996Z,5.20
2023-05-23T07:17:42.706Z,5.25
2023-05-23T07:20:10.845Z,5.18
2023-05-23T07:22:38.437Z,6.88
2023-05-23T07:25:06.516Z,5.90
2023-05-23T07:27:34.093Z,7.22
2023-05-23T07:30:03.080Z,5.13
2023-05-23T07:32:30.761Z,4.72
2023-05-23T07:34:58.400Z,7.00
2023-05-23T07:37:27.408Z,5.13
2023-05-23T07:39:55.049Z,5.65
2023-05-23T07:42:22.628Z,3.33
2023-05-23T07:44:50.265Z,3.95
2023-05-23T07:47:19.216Z,4.40
2023-05-23T07:49:47.534Z,4.23
2023-05-23T07:52:15.124Z,4.20
2023-05-23T07:54:42.712Z,3.90
2023-05-23T07:57:10.343Z,3.80
2023-05-23T07:59:37.944Z,4.68
2023-05-23T08:02:06.118Z,4.97
2023-05-23T08:04:35.159Z,4.53
2023-05-23T08:07:05.824Z,4.15
2023-05-23T08:09:33.743Z,3.83
2023-05-23T08:12:01.396Z,5.95
2023-05-23T08:14:34.896Z,4.33
2023-05-23T08:17:17.081Z,4.18
2023-05-23T08:19:46.110Z,3.53
2023-05-23T08:22:13.701Z,4.47
2023-05-23T08:24:41.387Z,3.75
2023-05-23T08:27:09.536Z,5.37
2023-05-23T08:29:37.387Z,5.90
2023-05-23T08:32:05.252Z,5.32
2023-05-23T08:34:33.072Z,5.13
2023-05-23T08:37:02.226Z,4.93
2023-05-23T08:39:29.816Z,6.47
2023-05-23T08:41:57.465Z,7.72
2023-05-23T08:44:25.056Z,5.53
2023-05-23T08:46:54.205Z,6.18
2023-05-23T08:49:23.681Z,6.43
2023-05-23T08:51:52.565Z,4.20
2023-05-23T08:54:22.418Z,8.35
2023-05-23T08:56:52.258Z,6.50
2023-05-23T08:59:20.419Z,8.77
2023-05-23T09:01:49.133Z,6.72
2023-05-23T09:04:17.264Z,5.73
2023-05-23T09:06:44.822Z,5.93
2023-05-23T09:09:12.474Z,5.57
2023-05-23T09:11:45.873Z,8.30
2023-05-23T09:14:14.606Z,7.82
2023-05-23T09:16:42.341Z,7.10
2023-05-23T09:19:13.180Z,6.97
2023-05-23T09:21:43.755Z,7.32
2023-05-23T09:24:11.556Z,7.35
2023-05-23T09:26:39.253Z,6.72
2023-05-23T09:29:08.432Z,9.77
2023-05-23T09:31:36.066Z,6.95
2023-05-23T09:34:03.832Z,7.72
2023-05-23T09:36:34.690Z,10.73
2023-05-23T09:39:04.538Z,6.70
2023-05-23T09:41:32.364Z,7.13
2023-05-23T09:44:01.405Z,7.75
2023-05-23T09:46:30.880Z,6.88
2023-05-23T09:49:00.237Z,6.97
2023-05-23T09:51:28.389Z,8.40
2023-05-23T09:53:57.204Z,8.70
2023-05-23T09:56:25.693Z,9.27
2023-05-23T09:58:55.062Z,8.63
2023-05-23T10:01:24.486Z,12.55
2023-05-23T10:03:57.319Z,6.25
2023-05-23T10:06:27.639Z,7.70
2023-05-23T10:08:58.107Z,6.18
2023-05-23T10:11:40.583Z,6.38
2023-05-23T10:14:08.870Z,7.35
2023-05-23T10:16:40.797Z,7.28
2023-05-23T10:19:13.728Z,9.17
2023-05-23T10:21:46.851Z,7.93
2023-05-23T10:24:14.983Z,6.85
2023-05-23T10:26:42.569Z,7.20
2023-05-23T10:29:10.115Z,5.57
2023-05-23T10:31:37.896Z,7.40
2023-05-23T10:34:09.854Z,7.47
2023-05-23T10:36:50.616Z,6.18
2023-05-23T10:39:20.971Z,8.20
2023-05-23T10:41:50.225Z,6.13
2023-05-23T10:44:19.506Z,8.03
2023-05-23T10:46:54.703Z,6.15
2023-05-23T10:49:22.683Z,9.45
2023-05-23T10:51:52.438Z,7.15
2023-05-23T10:54:21.124Z,7.80
2023-05-23T10:56:49.383Z,7.90
2023-05-23T10:59:23.784Z,9.30
2023-05-23T11:01:52.181Z,8.38
2023-05-23T11:04:26.651Z,8.10
2023-05-23T11:06:56.917Z,10.40
2023-05-23T11:09:24.666Z,9.37
2023-05-23T11:11:57.961Z,6.60
2023-05-23T11:14:35.752Z,7.00
2023-05-23T11:17:16.638Z,7.13
2023-05-23T11:19:56.888Z,8.45
2023-05-23T11:22:30.756Z,8.83
2023-05-23T11:24:58.904Z,8.20
2023-05-23T11:27:30.325Z,7.95
2023-05-23T11:30:02.044Z,9.35
2023-05-23T11:32:31.102Z,7.10
2023-05-23T11:35:02.218Z,6.83
2023-05-23T11:37:31.462Z,9.73
2023-05-23T11:39:59.074Z,10.18
2023-05-23T11:42:26.808Z,6.78
2023-05-23T11:44:54.569Z,7.47
2023-05-23T11:47:22.264Z,8.57
2023-05-23T11:49:49.863Z,7.20
2023-05-23T11:52:17.453Z,7.15
2023-05-23T11:54:46.564Z,8.52
2023-05-23T11:57:14.685Z,10.88
2023-05-23T11:59:42.444Z,8.03
2023-05-23T12:02:10.072Z,8.55
2023-05-23T12:04:38.049Z,7.68
2023-05-23T12:07:06.283Z,8.20
2023-05-23T12:09:33.974Z,7.65
2023-05-23T12:12:03.470Z,10.40
2023-05-23T12:14:31.353Z,8.93
2023-05-23T12:16:59.088Z,7.78
2023-05-23T12:19:26.772Z,10.48
2023-05-23T12:21:54.415Z,7.70
2023-05-23T12:24:22.691Z,6.57
2023-05-23T12:26:51.195Z,9.13
2023-05-23T12:29:29.118Z,7.78
2023-05-23T12:31:56.792Z,8.30
2023-05-23T12:34:24.429Z,7.63
2023-05-23T12:37:06.310Z,7.30
2023-05-23T12:39:44.886Z,9.20
2023-05-23T12:42:12.613Z,8.95
2023-05-23T12:44:43.606Z,8.48
2023-05-23T12:47:11.580Z,7.40
2023-05-23T12:49:39.253Z,7.83
2023-05-23T12:52:07.074Z,7.40
2023-05-23T12:54:34.662Z,8.27
2023-05-23T12:57:02.245Z,8.23
2023-05-23T12:59:29.874Z,7.15
2023-05-23T13:02:00.532Z,7.13
2023-05-23T13:04:30.178Z,7.93
2023-05-23T13:06:59.450Z,10.50
2023-05-23T13:09:27.044Z,7.63
2023-05-23T13:11:55.490Z,7.85
2023-05-23T13:14:23.116Z,7.97
2023-05-23T13:16:50.737Z,8.60
2023-05-23T13:19:19.849Z,6.55
2023-05-23T13:21:49.538Z,13.73
2023-05-23T13:24:17.765Z,11.60
2023-05-23T13:26:45.409Z,8.20
2023-05-23T13:29:13.113Z,8.82
2023-05-23T13:31:40.786Z,9.70
2023-05-23T13:34:08.456Z,7.97
2023-05-23T13:36:37.409Z,8.15
2023-05-23T13:39:05.081Z,8.70
2023-05-23T13:41:32.686Z,7.05
2023-05-23T13:44:00.233Z,9.77
2023-05-23T13:46:27.879Z,9.48
2023-05-23T13:48:55.478Z,7.13
2023-05-23T13:51:23.080Z,9.43
2023-05-23T13:53:52.137Z,8.32
2023-05-23T13:56:19.745Z,9.57
2023-05-23T13:58:47.638Z,10.68
2023-05-23T14:01:15.279Z,7.18
2023-05-23T14:03:42.948Z,10.90
2023-05-23T14:06:10.506Z,9.45
2023-05-23T14:08:38.102Z,7.30
2023-05-23T14:11:07.065Z,7.70
2023-05-23T14:13:34.704Z,10.68
2023-05-23T14:16:02.481Z,9.77
2023-05-23T14:18:30.110Z,10.15
2023-05-23T14:20:57.694Z,10.93
2023-05-23T14:23:25.319Z,10.43
2023-05-23T14:25:52.945Z,9.95
2023-05-23T14:28:21.973Z,6.27
2023-05-23T14:30:49.556Z,12.07
2023-05-23T14:33:17.174Z,10.30
2023-05-23T14:35:44.778Z,8.60
2023-05-23T14:38:12.390Z,10.52
2023-05-23T14:40:40.067Z,8.17
2023-05-23T14:43:07.803Z,7.93
2023-05-23T14:45:37.176Z,7.82
2023-05-23T14:48:05.536Z,9.55
2023-05-23T14:50:33.230Z,8.90
2023-05-23T14:53:00.856Z,7.27
2023-05-23T14:55:28.567Z,7.32
2023-05-23T14:57:56.613Z,8.82
2023-05-23T15:00:24.561Z,11.88
2023-05-23T15:02:53.507Z,9.35
2023-05-23T15:05:21.357Z,8.40
2023-05-23T15:07:48.943Z,9.77
2023-05-23T15:10:16.506Z,12.98
2023-05-23T15:12:44.168Z,7.22
2023-05-23T15:15:12.190Z,19.30
2023-05-23T15:17:39.782Z,10.13
2023-05-23T15:20:10.241Z,10.48
2023-05-23T15:22:39.837Z,11.52
2023-05-23T15:25:08.494Z,9.63
2023-05-23T15:27:36.207Z,16.35
2023-05-23T15:30:04.268Z,9.40
2023-05-23T15:32:31.860Z,11.00
2023-05-23T15:34:59.552Z,10.77
2023-05-23T15:37:28.518Z,8.85
2023-05-23T15:39:56.101Z,11.93
2023-05-23T15:42:23.701Z,11.63
2023-05-23T15:44:51.361Z,11.43
2023-05-23T15:47:20.693Z,9.55
2023-05-23T15:49:48.292Z,10.85
2023-05-23T15:52:15.982Z,8.75
2023-05-23T15:54:44.998Z,11.40
2023-05-23T15:57:12.655Z,10.18
2023-05-23T15:59:40.293Z,11.98
2023-05-23T16:02:10.292Z,13.88
2023-05-23T16:04:38.952Z,7.30
2023-05-23T16:07:06.793Z,9.30
2023-05-23T16:09:34.512Z,11.70
2023-05-23T16:12:03.519Z,9.82
2023-05-23T16:14:31.249Z,12.75
2023-05-23T16:17:02.749Z,9.65
2023-05-23T16:19:30.733Z,10.30
2023-05-23T16:21:58.498Z,10.45
2023-05-23T16:24:28.147Z,12.00
2023-05-23T16:26:55.927Z,11.23
2023-05-23T16:29:24.887Z,12.98
2023-05-23T16:31:52.754Z,13.10
2023-05-23T16:34:20.458Z,11.50
2023-05-23T16:36:48.059Z,13.20
2023-05-23T16:39:16.161Z,11.07
2023-05-23T16:41:43.771Z,10.82
2023-05-23T16:44:11.562Z,14.73
2023-05-23T16:46:40.819Z,13.68
2023-05-23T16:49:08.426Z,11.90
2023-05-23T16:51:36.067Z,9.73
2023-05-23T16:54:03.941Z,14.02
2023-05-23T16:56:31.567Z,7.30
2023-05-23T16:58:59.152Z,13.65
2023-05-23T17:01:26.840Z,10.27
2023-05-23T17:03:56.876Z,11.30
2023-05-23T17:06:24.601Z,13.20
2023-05-23T17:08:52.198Z,10.60
2023-05-23T17:11:20.067Z,11.85
2023-05-23T17:13:47.658Z,7.57
2023-05-23T17:16:18.035Z,10.93
2023-05-23T17:18:47.808Z,12.60
2023-05-23T17:21:16.820Z,11.43
2023-05-23T17:23:44.499Z,16.45
2023-05-23T17:26:12.182Z,13.27
2023-05-23T17:28:39.797Z,13.43
2023-05-23T17:31:07.808Z,11.45
2023-05-23T17:33:35.458Z,15.50
2023-05-23T17:36:03.571Z,11.30
2023-05-23T17:38:32.546Z,15.13
2023-05-23T17:41:00.511Z,10.23
2023-05-23T17:43:28.099Z,10.70
2023-05-23T17:45:58.005Z,8.67
2023-05-23T17:48:34.715Z,13.57
2023-05-23T17:51:13.202Z,14.57
2023-05-23T17:53:42.244Z,14.50
2023-05-23T17:56:10.338Z,13.70
2023-05-23T17:58:39.183Z,9.23
2023-05-23T18:01:07.792Z,10.18
2023-05-23T18:03:35.593Z,15.73
2023-05-23T18:06:03.290Z,11.88
2023-05-23T18:08:30.860Z,12.50
2023-05-23T18:11:00.107Z,11.27
2023-05-23T18:13:27.698Z,13.15
2023-05-23T18:15:55.330Z,11.35
2023-05-23T18:18:23.453Z,13.20
2023-05-23T18:20:52.144Z,12.43
2023-05-23T18:23:19.740Z,11.47
2023-05-23T18:25:48.233Z,15.35
2023-05-23T18:28:17.248Z,13.57
2023-05-23T18:30:45.016Z,15.20
2023-05-23T18:33:12.913Z,9.45
2023-05-23T18:35:40.807Z,15.50
2023-05-23T18:38:08.567Z,9.57
2023-05-23T18:40:36.198Z,12.48
2023-05-23T18:43:03.829Z,12.48
2023-05-23T18:45:32.828Z,14.52
2023-05-23T18:48:00.465Z,12.77
2023-05-23T18:50:28.091Z,13.75
2023-05-23T18:52:55.730Z,12.63
2023-05-23T18:55:23.385Z,10.02
2023-05-23T18:57:53.042Z,13.13
2023-05-23T19:00:21.012Z,12.00
2023-05-23T19:02:50.016Z,14.88
2023-05-23T19:05:17.759Z,9.63
2023-05-23T19:07:45.388Z,8.43
2023-05-23T19:10:13.166Z,13.15
2023-05-23T19:12:40.905Z,11.67
2023-05-23T19:15:10.237Z,15.10
2023-05-23T19:17:38.041Z,15.70
2023-05-23T19:20:08.252Z,13.90
2023-05-23T19:22:50.419Z,16.17
2023-05-23T19:25:19.232Z,9.63
2023-05-23T19:27:46.835Z,12.05
2023-05-23T19:30:14.527Z,14.85
2023-05-23T19:32:42.190Z,17.20
2023-05-23T19:35:11.999Z,12.38
2023-05-23T19:37:41.620Z,15.83
2023-05-23T19:40:09.855Z,15.15
2023-05-23T19:52:16.198Z,17.97
2023-05-23T19:54:43.818Z,13.77
2023-05-23T19:57:11.444Z,17.15
2023-05-23T19:59:38.974Z,13.57
2023-05-23T20:02:06.592Z,12.68
2023-05-23T20:04:34.229Z,14.37
2023-05-23T20:07:01.762Z,9.63
2023-05-23T20:09:31.046Z,15.60
2023-05-23T20:16:59.746Z,12.13
2023-05-23T20:19:26.308Z,13.70
2023-05-23T20:21:52.856Z,15.70
2023-05-23T20:24:19.041Z,12.02
2023-05-23T20:26:45.568Z,13.50
2023-05-23T20:29:11.756Z,14.98
2023-05-23T20:31:37.887Z,14.07
2023-05-23T20:34:05.110Z,14.20
2023-05-23T20:41:33.858Z,11.00
2023-05-23T20:44:01.569Z,16.53
2023-05-23T20:46:29.478Z,17.77
2023-05-23T20:48:57.881Z,11.95
2023-05-23T20:51:25.456Z,14.50
2023-05-23T20:53:53.346Z,15.27
2023-05-23T20:56:21.144Z,15.15
2023-05-23T20:58:50.075Z,14.15
2023-05-23T21:01:17.685Z,14.23
2023-05-23T21:03:45.403Z,12.48
2023-05-23T21:06:13.022Z,13.97
2023-05-23T21:08:40.590Z,18.05
2023-05-23T21:11:08.138Z,16.45
2023-05-23T21:13:36.717Z,14.43
2023-05-23T21:16:08.756Z,21.80
2023-05-23T21:18:36.427Z,17.37
2023-05-23T21:21:04.021Z,17.52
2023-05-23T21:23:31.602Z,15.15
2023-05-23T21:25:59.181Z,21.75
2023-05-23T21:28:26.794Z,15.38
2023-05-23T21:30:54.882Z,22.53
2023-05-23T21:33:23.917Z,17.40
2023-05-23T21:35:52.127Z,19.27
2023-05-23T21:38:19.876Z,16.85
2023-05-23T21:40:47.553Z,21.52
2023-05-23T21:43:15.579Z,15.43
2023-05-23T21:45:43.192Z,20.48
2023-05-23T21:48:10.787Z,16.38
2023-05-23T21:50:39.869Z,19.25
2023-05-23T21:53:07.598Z,12.85
2023-05-23T21:55:35.197Z,13.20
2023-05-23T21:58:02.767Z,17.60
2023-05-23T22:00:31.090Z,18.75
2023-05-23T22:02:58.723Z,19.08
2023-05-23T22:05:26.569Z,15.13
2023-05-23T22:07:56.220Z,17.83
2023-05-23T22:10:23.794Z,20.73
2023-05-23T22:12:51.391Z,20.48
2023-05-23T22:15:18.972Z,15.52
2023-05-23T22:17:46.955Z,16.85
2023-05-23T22:20:16.611Z,15.27
2023-05-23T22:22:44.268Z,20.65
2023-05-23T22:25:13.255Z,25.15
2023-05-23T22:27:41.046Z,20.50
2023-05-23T22:30:09.161Z,19.95
2023-05-23T22:32:36.790Z,11.37
2023-05-23T22:35:04.414Z,19.25
2023-05-23T22:37:31.976Z,14.48
2023-05-23T22:39:59.560Z,17.35
2023-05-23T22:42:28.514Z,20.88
2023-05-23T22:44:56.079Z,14.27
2023-05-23T22:47:23.815Z,16.77
2023-05-23T22:49:53.998Z,19.80
2023-05-23T22:52:23.368Z,17.67
2023-05-23T22:54:51.482Z,20.98
2023-05-23T22:57:19.093Z,18.53
2023-05-23T22:59:48.190Z,17.05
2023-05-23T23:02:15.816Z,17.10
2023-05-23T23:04:44.347Z,16.17
2023-05-23T23:07:12.260Z,16.80
2023-05-23T23:09:39.874Z,19.93
2023-05-23T23:12:07.680Z,14.25
2023-05-23T23:14:35.296Z,17.88
2023-05-23T23:17:04.982Z,14.82
2023-05-23T23:19:35.220Z,21.45
2023-05-23T23:22:03.055Z,20.20
2023-05-23T23:24:30.825Z,18.25
2023-05-23T23:26:58.376Z,18.15
2023-05-23T23:29:25.971Z,20.23
2023-05-23T23:31:55.758Z,17.70
2023-05-23T23:34:24.712Z,19.07
2023-05-23T23:36:52.312Z,20.80
2023-05-23T23:39:19.890Z,16.83
2023-05-23T23:41:48.263Z,24.50
2023-05-23T23:44:15.971Z,21.80
2023-05-23T23:46:43.562Z,13.20
2023-05-23T23:49:11.122Z,22.45
2023-05-23T23:51:40.059Z,20.58
2023-05-23T23:54:07.652Z,21.85
2023-05-23T23:56:35.200Z,15.75
2023-05-23T23:59:02.955Z,18.37
